Stolt Effort — ZCSP6 — position and weather

sailwx.info

Track history (hours):
 
Tides and Currents Weather Stations Pressure Air Temp Water Temp Dewpoint Dewpoint Depression Visibility Wind Speed Wind Dir Waves Ship Positions

Stolt Effort

Last reported at 2015-Apr-12 18:14 UTC. Time now 2015-May-06 19:32 UTC.
Position N 29°21' W 094°47'.
Warning: this ship's position is 24 days out of date.

Length 176 m; draft 11.7 m.

Type: Ship (hazmat cat B). MMSI: 319445000.

Date/timePositionNaut miles runAvg speedWind from/ knotsBaromVisibWave heightAir tempDewpointWater temp
2015-Apr-12 18:14N 29°21' W 094°47'710.1
2015-Apr-12 17:33N 29°27' W 094°51'1110.7
2015-Apr-12 16:33N 29°36' W 094°57'9 9.3
2015-Apr-12 15:34N 29°44' W 095°03'5 4.4
2015-Apr-12 14:32N 29°44' W 095°08'0 0.0
2015-Apr-12 05:32N 29°44' W 095°08'0 0.0
2015-Apr-12 04:32N 29°44' W 095°08'0 0.0
2015-Apr-12 03:29N 29°44' W 095°08'0 0.0
2015-Apr-12 02:32N 29°44' W 095°08'0 0.0
2015-Apr-12 01:29N 29°44' W 095°08'0 0.0
2015-Apr-12 00:32N 29°44' W 095°08'0 0.0
2015-Apr-11 23:32N 29°44' W 095°08'0 0.0
2015-Apr-11 22:32N 29°44' W 095°08'2 2.3
2015-Apr-11 21:33N 29°45' W 095°06'3 2.6
2015-Apr-11 20:33N 29°44' W 095°03'0 0.0
2015-Apr-11 19:32N 29°44' W 095°03'0 0.0
2015-Apr-11 18:26N 29°44' W 095°03'0 0.0
2015-Apr-11 17:23N 29°44' W 095°03'0 0.0
2015-Apr-11 16:29N 29°44' W 095°03'0 0.0
2015-Apr-11 15:32N 29°44' W 095°03'0 0.0
2015-Apr-11 14:29N 29°44' W 095°03'0 0.0
2015-Apr-11 13:32N 29°44' W 095°03'0 0.0
2015-Apr-11 12:32N 29°44' W 095°03'0 0.0
2015-Apr-11 11:32N 29°44' W 095°03'0 0.0
2015-Apr-11 10:32N 29°44' W 095°03'0 0.0
2015-Apr-11 09:32N 29°44' W 095°03'0 0.0
2015-Apr-11 08:29N 29°44' W 095°03'2 2.6
2015-Apr-11 07:33N 29°46' W 095°05'1 1.0
2015-Apr-11 06:25N 29°45' W 095°06'0 0.0
2015-Apr-11 05:31N 29°45' W 095°06'0 0.0
2015-Apr-11 04:28N 29°45' W 095°06'0 0.0
2015-Apr-11 03:28N 29°45' W 095°06'0 0.0
2015-Apr-11 02:28N 29°45' W 095°06'0 0.0
2015-Apr-11 01:31N 29°45' W 095°06'0 0.0
2015-Apr-11 00:31N 29°45' W 095°06'0 0.0
2015-Apr-10 23:31N 29°45' W 095°06'0 0.0
2015-Apr-10 22:31N 29°45' W 095°06'0 0.0
2015-Apr-10 21:28N 29°45' W 095°06'0 0.0
2015-Apr-10 20:31N 29°45' W 095°06'0 0.0
2015-Apr-10 19:31N 29°45' W 095°06'0 0.0
2015-Apr-10 18:31N 29°45' W 095°06'0 0.0
2015-Apr-10 17:31N 29°45' W 095°06'0 0.0
2015-Apr-10 16:31N 29°45' W 095°06'0 0.0
2015-Apr-10 15:31N 29°45' W 095°06'0 0.0
2015-Apr-10 14:28N 29°45' W 095°06'0 0.0
2015-Apr-10 13:28N 29°45' W 095°06'0 0.0
2015-Apr-10 08:14N 29°45' W 095°06'1 1.6
2015-Apr-10 07:33N 29°46' W 095°05'8 7.9
2015-Apr-10 06:32N 29°40' W 094°59'1211.8
2015-Apr-10 05:33N 29°30' W 094°52'1110.6
2015-Apr-10 04:31N 29°21' W 094°45'  
2015-Apr-07 07:22N 29°21' W 094°47'911.4
2015-Apr-07 06:33N 29°29' W 094°52'1211.7
2015-Apr-07 05:33N 29°39' W 094°58'5 0.1
2015-Apr-05 11:29N 29°43' W 095°01'0 0.0
2015-Apr-05 08:05N 29°43' W 095°01'0 0.0
2015-Apr-05 04:29N 29°43' W 095°01'0 0.0
2015-Apr-05 02:17N 29°43' W 095°01'0 0.0
2015-Apr-04 19:29N 29°43' W 095°01'0 0.0
2015-Apr-04 12:17N 29°43' W 095°01'0 0.0
2015-Apr-03 01:05N 29°43' W 095°01'0 0.0
2015-Apr-03 00:23N 29°43' W 095°01'  
Track history (hours):
 
Tides and Currents Weather Stations Pressure Air Temp Water Temp Dewpoint Dewpoint Depression Visibility Wind Speed Wind Dir Waves Ship Positions

Stolt Effort

Last reported at 2015-Apr-12 18:14 UTC. Time now 2015-May-06 19:32 UTC.
Position N 29°21' W 094°47'.
Warning: this ship's position is 24 days out of date.

Length 176 m; draft 11.7 m.

Type: Ship (hazmat cat B). MMSI: 319445000.

Date/timePositionNaut miles runAvg speedWind from/ knotsBaromVisibWave heightAir tempDewpointWater temp
2015-Apr-12 18:14N 29°21' W 094°47'710.1
2015-Apr-12 17:33N 29°27' W 094°51'1110.7
2015-Apr-12 16:33N 29°36' W 094°57'9 9.3
2015-Apr-12 15:34N 29°44' W 095°03'5 4.4
2015-Apr-12 14:32N 29°44' W 095°08'0 0.0
2015-Apr-12 05:32N 29°44' W 095°08'0 0.0
2015-Apr-12 04:32N 29°44' W 095°08'0 0.0
2015-Apr-12 03:29N 29°44' W 095°08'0 0.0
2015-Apr-12 02:32N 29°44' W 095°08'0 0.0
2015-Apr-12 01:29N 29°44' W 095°08'0 0.0
2015-Apr-12 00:32N 29°44' W 095°08'0 0.0
2015-Apr-11 23:32N 29°44' W 095°08'0 0.0
2015-Apr-11 22:32N 29°44' W 095°08'2 2.3
2015-Apr-11 21:33N 29°45' W 095°06'3 2.6
2015-Apr-11 20:33N 29°44' W 095°03'0 0.0
2015-Apr-11 19:32N 29°44' W 095°03'0 0.0
2015-Apr-11 18:26N 29°44' W 095°03'0 0.0
2015-Apr-11 17:23N 29°44' W 095°03'0 0.0
2015-Apr-11 16:29N 29°44' W 095°03'0 0.0
2015-Apr-11 15:32N 29°44' W 095°03'0 0.0
2015-Apr-11 14:29N 29°44' W 095°03'0 0.0
2015-Apr-11 13:32N 29°44' W 095°03'0 0.0
2015-Apr-11 12:32N 29°44' W 095°03'0 0.0
2015-Apr-11 11:32N 29°44' W 095°03'0 0.0
2015-Apr-11 10:32N 29°44' W 095°03'0 0.0
2015-Apr-11 09:32N 29°44' W 095°03'0 0.0
2015-Apr-11 08:29N 29°44' W 095°03'2 2.6
2015-Apr-11 07:33N 29°46' W 095°05'1 1.0
2015-Apr-11 06:25N 29°45' W 095°06'0 0.0
2015-Apr-11 05:31N 29°45' W 095°06'0 0.0
2015-Apr-11 04:28N 29°45' W 095°06'0 0.0
2015-Apr-11 03:28N 29°45' W 095°06'0 0.0
2015-Apr-11 02:28N 29°45' W 095°06'0 0.0
2015-Apr-11 01:31N 29°45' W 095°06'0 0.0
2015-Apr-11 00:31N 29°45' W 095°06'0 0.0
2015-Apr-10 23:31N 29°45' W 095°06'0 0.0
2015-Apr-10 22:31N 29°45' W 095°06'0 0.0
2015-Apr-10 21:28N 29°45' W 095°06'0 0.0
2015-Apr-10 20:31N 29°45' W 095°06'0 0.0
2015-Apr-10 19:31N 29°45' W 095°06'0 0.0
2015-Apr-10 18:31N 29°45' W 095°06'0 0.0
2015-Apr-10 17:31N 29°45' W 095°06'0 0.0
2015-Apr-10 16:31N 29°45' W 095°06'0 0.0
2015-Apr-10 15:31N 29°45' W 095°06'0 0.0
2015-Apr-10 14:28N 29°45' W 095°06'0 0.0
2015-Apr-10 13:28N 29°45' W 095°06'0 0.0
2015-Apr-10 08:14N 29°45' W 095°06'1 1.6
2015-Apr-10 07:33N 29°46' W 095°05'8 7.9
2015-Apr-10 06:32N 29°40' W 094°59'1211.8
2015-Apr-10 05:33N 29°30' W 094°52'1110.6
2015-Apr-10 04:31N 29°21' W 094°45'  
2015-Apr-07 07:22N 29°21' W 094°47'911.4
2015-Apr-07 06:33N 29°29' W 094°52'1211.7
2015-Apr-07 05:33N 29°39' W 094°58'5 0.1
2015-Apr-05 11:29N 29°43' W 095°01'0 0.0
2015-Apr-05 08:05N 29°43' W 095°01'0 0.0
2015-Apr-05 04:29N 29°43' W 095°01'0 0.0
2015-Apr-05 02:17N 29°43' W 095°01'0 0.0
2015-Apr-04 19:29N 29°43' W 095°01'0 0.0
2015-Apr-04 12:17N 29°43' W 095°01'0 0.0
2015-Apr-03 01:05N 29°43' W 095°01'0 0.0
2015-Apr-03 00:23N 29°43' W 095°01'  

Dump ship's entire track history